sensor_id;sensor_type;location;lat;lon;timestamp;P1;durP1;ratioP1;P2;durP2;ratioP2
48805;SDS011;34625;47.176;27.548;2024-01-15T00:00:44;27.50;;;16.65;;
48805;SDS011;34625;47.176;27.548;2024-01-15T00:03:10;30.10;;;17.88;;
48805;SDS011;34625;47.176;27.548;2024-01-15T00:05:37;30.92;;;17.40;;
48805;SDS011;34625;47.176;27.548;2024-01-15T00:08:03;26.85;;;15.18;;
48805;SDS011;34625;47.176;27.548;2024-01-15T00:10:30;26.80;;;16.02;;
48805;SDS011;34625;47.176;27.548;2024-01-15T00:12:56;27.33;;;16.55;;
48805;SDS011;34625;47.176;27.548;2024-01-15T00:15:22;33.60;;;19.63;;
48805;SDS011;34625;47.176;27.548;2024-01-15T00:17:48;34.20;;;19.85;;
48805;SDS011;34625;47.176;27.548;2024-01-15T00:20:14;34.75;;;19.70;;
48805;SDS011;34625;47.176;27.548;2024-01-15T00:22:40;34.92;;;19.73;;
48805;SDS011;34625;47.176;27.548;2024-01-15T00:25:06;33.38;;;18.73;;
48805;SDS011;34625;47.176;27.548;2024-01-15T00:27:32;31.67;;;19.40;;
48805;SDS011;34625;47.176;27.548;2024-01-15T00:29:58;28.55;;;16.55;;
48805;SDS011;34625;47.176;27.548;2024-01-15T00:32:24;27.38;;;15.90;;
48805;SDS011;34625;47.176;27.548;2024-01-15T00:34:50;24.00;;;14.35;;
48805;SDS011;34625;47.176;27.548;2024-01-15T00:37:17;25.70;;;14.85;;
48805;SDS011;34625;47.176;27.548;2024-01-15T00:39:43;22.77;;;14.07;;
48805;SDS011;34625;47.176;27.548;2024-01-15T00:42:09;24.50;;;13.63;;
48805;SDS011;34625;47.176;27.548;2024-01-15T00:44:35;21.80;;;12.95;;
48805;SDS011;34625;47.176;27.548;2024-01-15T00:47:01;21.65;;;13.52;;
48805;SDS011;34625;47.176;27.548;2024-01-15T00:49:27;19.40;;;13.18;;
48805;SDS011;34625;47.176;27.548;2024-01-15T00:51:53;27.23;;;15.18;;
48805;SDS011;34625;47.176;27.548;2024-01-15T00:54:19;30.63;;;15.80;;
48805;SDS011;34625;47.176;27.548;2024-01-15T00:56:45;22.42;;;12.30;;
48805;SDS011;34625;47.176;27.548;2024-01-15T00:59:11;19.38;;;13.63;;
48805;SDS011;34625;47.176;27.548;2024-01-15T01:01:40;29.58;;;17.67;;
48805;SDS011;34625;47.176;27.548;2024-01-15T01:04:11;35.83;;;19.85;;
48805;SDS011;34625;47.176;27.548;2024-01-15T01:06:37;31.20;;;18.85;;
48805;SDS011;34625;47.176;27.548;2024-01-15T01:09:04;37.88;;;20.25;;
48805;SDS011;34625;47.176;27.548;2024-01-15T01:11:30;29.40;;;18.20;;
48805;SDS011;34625;47.176;27.548;2024-01-15T01:13:56;33.45;;;17.13;;
48805;SDS011;34625;47.176;27.548;2024-01-15T01:16:22;27.85;;;16.05;;
48805;SDS011;34625;47.176;27.548;2024-01-15T01:18:48;27.55;;;14.65;;
48805;SDS011;34625;47.176;27.548;2024-01-15T01:21:14;23.20;;;13.02;;
48805;SDS011;34625;47.176;27.548;2024-01-15T01:23:40;18.88;;;11.60;;
48805;SDS011;34625;47.176;27.548;2024-01-15T01:26:06;20.17;;;11.65;;
48805;SDS011;34625;47.176;27.548;2024-01-15T01:28:33;20.63;;;11.93;;
48805;SDS011;34625;47.176;27.548;2024-01-15T01:30:59;20.30;;;10.77;;
48805;SDS011;34625;47.176;27.548;2024-01-15T01:33:25;17.40;;;11.00;;
48805;SDS011;34625;47.176;27.548;2024-01-15T01:35:51;17.60;;;11.63;;
48805;SDS011;34625;47.176;27.548;2024-01-15T01:38:18;17.38;;;9.90;;
48805;SDS011;34625;47.176;27.548;2024-01-15T01:40:44;17.52;;;9.90;;
48805;SDS011;34625;47.176;27.548;2024-01-15T01:43:10;18.15;;;11.20;;
48805;SDS011;34625;47.176;27.548;2024-01-15T01:45:37;26.27;;;14.13;;
48805;SDS011;34625;47.176;27.548;2024-01-15T01:48:04;27.70;;;15.85;;
48805;SDS011;34625;47.176;27.548;2024-01-15T01:50:30;32.90;;;17.63;;
48805;SDS011;34625;47.176;27.548;2024-01-15T01:52:57;28.02;;;16.55;;
48805;SDS011;34625;47.176;27.548;2024-01-15T01:55:24;32.65;;;18.50;;
48805;SDS011;34625;47.176;27.548;2024-01-15T01:57:52;37.28;;;18.40;;
48805;SDS011;34625;47.176;27.548;2024-01-15T02:00:19;31.38;;;19.20;;
48805;SDS011;34625;47.176;27.548;2024-01-15T02:02:45;37.30;;;20.90;;
48805;SDS011;34625;47.176;27.548;2024-01-15T02:05:11;36.22;;;19.90;;
48805;SDS011;34625;47.176;27.548;2024-01-15T02:07:39;41.13;;;22.15;;
48805;SDS011;34625;47.176;27.548;2024-01-15T02:10:06;39.80;;;21.60;;
48805;SDS011;34625;47.176;27.548;2024-01-15T02:12:32;43.17;;;21.98;;
48805;SDS011;34625;47.176;27.548;2024-01-15T02:14:58;39.03;;;21.92;;
48805;SDS011;34625;47.176;27.548;2024-01-15T02:17:24;40.00;;;20.33;;
48805;SDS011;34625;47.176;27.548;2024-01-15T02:19:50;46.92;;;22.77;;
48805;SDS011;34625;47.176;27.548;2024-01-15T02:22:17;73.15;;;30.90;;
48805;SDS011;34625;47.176;27.548;2024-01-15T02:24:43;56.20;;;27.73;;
48805;SDS011;34625;47.176;27.548;2024-01-15T02:27:09;51.70;;;24.95;;
48805;SDS011;34625;47.176;27.548;2024-01-15T02:29:35;38.45;;;20.67;;
48805;SDS011;34625;47.176;27.548;2024-01-15T02:32:05;21.33;;;13.15;;
48805;SDS011;34625;47.176;27.548;2024-01-15T02:34:32;18.60;;;11.73;;
48805;SDS011;34625;47.176;27.548;2024-01-15T02:36:58;29.42;;;16.40;;
48805;SDS011;34625;47.176;27.548;2024-01-15T02:39:24;29.38;;;18.23;;
48805;SDS011;34625;47.176;27.548;2024-01-15T02:41:50;31.25;;;18.90;;
48805;SDS011;34625;47.176;27.548;2024-01-15T02:44:16;37.63;;;19.20;;
48805;SDS011;34625;47.176;27.548;2024-01-15T02:46:42;36.20;;;19.42;;
48805;SDS011;34625;47.176;27.548;2024-01-15T02:49:08;37.47;;;19.83;;
48805;SDS011;34625;47.176;27.548;2024-01-15T02:51:34;38.63;;;20.38;;
48805;SDS011;34625;47.176;27.548;2024-01-15T02:54:00;35.20;;;19.58;;
48805;SDS011;34625;47.176;27.548;2024-01-15T02:56:27;34.25;;;19.50;;
48805;SDS011;34625;47.176;27.548;2024-01-15T02:58:53;35.55;;;21.20;;
48805;SDS011;34625;47.176;27.548;2024-01-15T03:01:19;34.55;;;19.67;;
48805;SDS011;34625;47.176;27.548;2024-01-15T03:03:45;38.15;;;20.00;;
48805;SDS011;34625;47.176;27.548;2024-01-15T03:06:11;34.55;;;18.63;;
48805;SDS011;34625;47.176;27.548;2024-01-15T03:08:37;31.73;;;18.25;;
48805;SDS011;34625;47.176;27.548;2024-01-15T03:11:03;34.45;;;19.05;;
48805;SDS011;34625;47.176;27.548;2024-01-15T03:13:29;32.53;;;18.55;;
48805;SDS011;34625;47.176;27.548;2024-01-15T03:15:56;34.22;;;18.80;;
48805;SDS011;34625;47.176;27.548;2024-01-15T03:18:22;33.97;;;19.25;;
48805;SDS011;34625;47.176;27.548;2024-01-15T03:20:48;32.22;;;18.23;;
48805;SDS011;34625;47.176;27.548;2024-01-15T03:23:14;33.97;;;18.27;;
48805;SDS011;34625;47.176;27.548;2024-01-15T03:25:40;27.23;;;14.65;;
48805;SDS011;34625;47.176;27.548;2024-01-15T03:28:06;30.00;;;15.55;;
48805;SDS011;34625;47.176;27.548;2024-01-15T03:30:32;28.63;;;17.88;;
48805;SDS011;34625;47.176;27.548;2024-01-15T03:32:58;30.33;;;18.52;;
48805;SDS011;34625;47.176;27.548;2024-01-15T03:35:24;31.15;;;18.83;;
48805;SDS011;34625;47.176;27.548;2024-01-15T03:37:54;34.95;;;18.85;;
48805;SDS011;34625;47.176;27.548;2024-01-15T03:40:21;28.48;;;17.02;;
48805;SDS011;34625;47.176;27.548;2024-01-15T03:42:47;33.47;;;18.20;;
48805;SDS011;34625;47.176;27.548;2024-01-15T03:45:13;31.60;;;18.60;;
48805;SDS011;34625;47.176;27.548;2024-01-15T03:47:39;28.83;;;18.25;;
48805;SDS011;34625;47.176;27.548;2024-01-15T03:50:05;30.30;;;17.08;;
48805;SDS011;34625;47.176;27.548;2024-01-15T03:52:31;33.42;;;17.90;;
48805;SDS011;34625;47.176;27.548;2024-01-15T03:54:57;29.17;;;17.92;;
48805;SDS011;34625;47.176;27.548;2024-01-15T03:57:23;31.80;;;17.73;;
48805;SDS011;34625;47.176;27.548;2024-01-15T03:59:50;27.83;;;17.38;;
48805;SDS011;34625;47.176;27.548;2024-01-15T04:02:16;32.65;;;18.20;;
48805;SDS011;34625;47.176;27.548;2024-01-15T04:04:42;27.00;;;15.38;;
48805;SDS011;34625;47.176;27.548;2024-01-15T04:07:12;32.00;;;16.13;;
48805;SDS011;34625;47.176;27.548;2024-01-15T04:09:38;26.45;;;14.30;;
48805;SDS011;34625;47.176;27.548;2024-01-15T04:12:04;26.92;;;15.07;;
48805;SDS011;34625;47.176;27.548;2024-01-15T04:14:30;23.90;;;13.23;;
48805;SDS011;34625;47.176;27.548;2024-01-15T04:16:56;23.13;;;13.35;;
48805;SDS011;34625;47.176;27.548;2024-01-15T04:19:22;21.88;;;12.80;;
48805;SDS011;34625;47.176;27.548;2024-01-15T04:21:48;24.55;;;13.85;;
48805;SDS011;34625;47.176;27.548;2024-01-15T04:24:14;19.73;;;11.77;;
48805;SDS011;34625;47.176;27.548;2024-01-15T04:26:43;24.85;;;14.18;;
48805;SDS011;34625;47.176;27.548;2024-01-15T04:29:09;26.48;;;13.98;;
48805;SDS011;34625;47.176;27.548;2024-01-15T04:31:35;22.83;;;13.55;;
48805;SDS011;34625;47.176;27.548;2024-01-15T04:34:01;25.20;;;13.52;;
48805;SDS011;34625;47.176;27.548;2024-01-15T04:36:27;22.83;;;13.80;;
48805;SDS011;34625;47.176;27.548;2024-01-15T04:38:53;24.40;;;13.43;;
48805;SDS011;34625;47.176;27.548;2024-01-15T04:41:19;23.52;;;13.52;;
48805;SDS011;34625;47.176;27.548;2024-01-15T04:43:46;18.65;;;11.98;;
48805;SDS011;34625;47.176;27.548;2024-01-15T04:46:12;22.77;;;12.00;;
48805;SDS011;34625;47.176;27.548;2024-01-15T04:48:38;21.63;;;13.63;;
48805;SDS011;34625;47.176;27.548;2024-01-15T04:51:04;22.83;;;13.32;;
48805;SDS011;34625;47.176;27.548;2024-01-15T04:53:31;23.20;;;14.13;;
48805;SDS011;34625;47.176;27.548;2024-01-15T04:55:58;20.33;;;12.57;;
48805;SDS011;34625;47.176;27.548;2024-01-15T04:58:24;24.38;;;13.85;;
48805;SDS011;34625;47.176;27.548;2024-01-15T05:00:52;24.15;;;14.25;;
48805;SDS011;34625;47.176;27.548;2024-01-15T05:03:19;10.95;;;6.28;;
48805;SDS011;34625;47.176;27.548;2024-01-15T05:05:45;10.32;;;6.22;;
48805;SDS011;34625;47.176;27.548;2024-01-15T05:08:11;10.63;;;6.70;;
48805;SDS011;34625;47.176;27.548;2024-01-15T05:10:37;11.35;;;7.35;;
48805;SDS011;34625;47.176;27.548;2024-01-15T05:13:04;13.32;;;8.75;;
48805;SDS011;34625;47.176;27.548;2024-01-15T05:15:30;16.30;;;9.05;;
48805;SDS011;34625;47.176;27.548;2024-01-15T05:17:56;15.70;;;10.85;;
48805;SDS011;34625;47.176;27.548;2024-01-15T05:20:22;18.23;;;10.35;;
48805;SDS011;34625;47.176;27.548;2024-01-15T05:22:48;25.52;;;13.15;;
48805;SDS011;34625;47.176;27.548;2024-01-15T05:25:14;21.33;;;13.65;;
48805;SDS011;34625;47.176;27.548;2024-01-15T05:27:40;23.55;;;13.80;;
48805;SDS011;34625;47.176;27.548;2024-01-15T05:30:06;22.55;;;13.57;;
48805;SDS011;34625;47.176;27.548;2024-01-15T05:32:33;22.83;;;12.73;;
48805;SDS011;34625;47.176;27.548;2024-01-15T05:34:59;23.08;;;14.30;;
48805;SDS011;34625;47.176;27.548;2024-01-15T05:37:25;22.08;;;14.95;;
48805;SDS011;34625;47.176;27.548;2024-01-15T05:39:51;27.85;;;15.43;;
48805;SDS011;34625;47.176;27.548;2024-01-15T05:42:17;27.30;;;15.10;;
48805;SDS011;34625;47.176;27.548;2024-01-15T05:44:43;24.17;;;15.07;;
48805;SDS011;34625;47.176;27.548;2024-01-15T05:47:09;33.42;;;18.25;;
48805;SDS011;34625;47.176;27.548;2024-01-15T05:49:35;27.20;;;15.10;;
48805;SDS011;34625;47.176;27.548;2024-01-15T05:52:01;22.85;;;14.13;;
48805;SDS011;34625;47.176;27.548;2024-01-15T05:54:28;27.52;;;15.13;;
48805;SDS011;34625;47.176;27.548;2024-01-15T05:56:54;23.20;;;13.55;;
48805;SDS011;34625;47.176;27.548;2024-01-15T05:59:20;23.77;;;13.57;;
48805;SDS011;34625;47.176;27.548;2024-01-15T06:01:46;20.65;;;12.68;;
48805;SDS011;34625;47.176;27.548;2024-01-15T06:04:12;20.30;;;11.85;;
48805;SDS011;34625;47.176;27.548;2024-01-15T06:06:38;10.40;;;8.15;;
48805;SDS011;34625;47.176;27.548;2024-01-15T06:09:05;11.52;;;8.07;;
48805;SDS011;34625;47.176;27.548;2024-01-15T06:11:31;10.65;;;8.25;;
48805;SDS011;34625;47.176;27.548;2024-01-15T06:13:58;9.38;;;7.70;;
48805;SDS011;34625;47.176;27.548;2024-01-15T06:16:25;10.15;;;7.82;;
48805;SDS011;34625;47.176;27.548;2024-01-15T06:18:52;10.57;;;6.93;;
48805;SDS011;34625;47.176;27.548;2024-01-15T06:21:18;12.15;;;8.38;;
48805;SDS011;34625;47.176;27.548;2024-01-15T06:23:44;10.10;;;7.97;;
48805;SDS011;34625;47.176;27.548;2024-01-15T06:26:13;12.52;;;7.85;;
48805;SDS011;34625;47.176;27.548;2024-01-15T06:28:39;12.07;;;8.57;;
48805;SDS011;34625;47.176;27.548;2024-01-15T06:31:08;17.95;;;10.85;;
48805;SDS011;34625;47.176;27.548;2024-01-15T06:33:34;14.80;;;8.90;;
48805;SDS011;34625;47.176;27.548;2024-01-15T06:36:00;14.98;;;8.95;;
48805;SDS011;34625;47.176;27.548;2024-01-15T06:38:27;16.40;;;10.32;;
48805;SDS011;34625;47.176;27.548;2024-01-15T06:40:53;15.73;;;10.02;;
48805;SDS011;34625;47.176;27.548;2024-01-15T06:43:19;15.63;;;9.90;;
48805;SDS011;34625;47.176;27.548;2024-01-15T06:45:45;14.63;;;9.15;;
48805;SDS011;34625;47.176;27.548;2024-01-15T06:48:11;11.38;;;6.15;;
48805;SDS011;34625;47.176;27.548;2024-01-15T06:50:44;7.07;;;4.60;;
48805;SDS011;34625;47.176;27.548;2024-01-15T06:53:12;6.47;;;4.90;;
48805;SDS011;34625;47.176;27.548;2024-01-15T06:55:38;7.55;;;4.72;;
48805;SDS011;34625;47.176;27.548;2024-01-15T06:58:04;6.63;;;4.40;;
48805;SDS011;34625;47.176;27.548;2024-01-15T07:00:30;14.15;;;9.48;;
48805;SDS011;34625;47.176;27.548;2024-01-15T07:02:56;11.20;;;7.15;;
48805;SDS011;34625;47.176;27.548;2024-01-15T07:05:23;10.43;;;4.88;;
48805;SDS011;34625;47.176;27.548;2024-01-15T07:07:49;7.93;;;5.38;;
48805;SDS011;34625;47.176;27.548;2024-01-15T07:10:16;8.18;;;5.40;;
48805;SDS011;34625;47.176;27.548;2024-01-15T07:12:42;8.82;;;5.82;;
48805;SDS011;34625;47.176;27.548;2024-01-15T07:15:09;11.38;;;7.28;;
48805;SDS011;34625;47.176;27.548;2024-01-15T07:17:35;7.53;;;5.07;;
48805;SDS011;34625;47.176;27.548;2024-01-15T07:20:05;12.63;;;6.63;;
48805;SDS011;34625;47.176;27.548;2024-01-15T07:22:33;9.25;;;5.90;;
48805;SDS011;34625;47.176;27.548;2024-01-15T07:25:00;15.88;;;10.23;;
48805;SDS011;34625;47.176;27.548;2024-01-15T07:27:27;17.80;;;11.30;;
48805;SDS011;34625;47.176;27.548;2024-01-15T07:29:53;16.83;;;9.75;;
48805;SDS011;34625;47.176;27.548;2024-01-15T07:32:19;13.35;;;9.20;;
48805;SDS011;34625;47.176;27.548;2024-01-15T07:34:45;17.50;;;10.68;;
48805;SDS011;34625;47.176;27.548;2024-01-15T07:37:12;15.02;;;9.43;;
48805;SDS011;34625;47.176;27.548;2024-01-15T07:39:38;19.58;;;12.07;;
48805;SDS011;34625;47.176;27.548;2024-01-15T07:42:04;18.85;;;11.20;;
48805;SDS011;34625;47.176;27.548;2024-01-15T07:44:31;26.92;;;15.38;;
48805;SDS011;34625;47.176;27.548;2024-01-15T07:46:57;31.08;;;15.98;;
48805;SDS011;34625;47.176;27.548;2024-01-15T07:49:23;18.00;;;11.65;;
48805;SDS011;34625;47.176;27.548;2024-01-15T07:51:49;18.05;;;11.88;;
48805;SDS011;34625;47.176;27.548;2024-01-15T07:54:15;19.08;;;11.70;;
48805;SDS011;34625;47.176;27.548;2024-01-15T07:56:54;16.02;;;10.02;;
48805;SDS011;34625;47.176;27.548;2024-01-15T07:59:25;19.02;;;10.30;;
48805;SDS011;34625;47.176;27.548;2024-01-15T08:01:52;16.55;;;9.65;;
48805;SDS011;34625;47.176;27.548;2024-01-15T08:04:19;18.80;;;12.30;;
48805;SDS011;34625;47.176;27.548;2024-01-15T08:06:45;17.52;;;10.52;;
48805;SDS011;34625;47.176;27.548;2024-01-15T08:09:11;16.13;;;10.55;;
48805;SDS011;34625;47.176;27.548;2024-01-15T08:11:40;14.05;;;8.23;;
48805;SDS011;34625;47.176;27.548;2024-01-15T08:14:07;18.30;;;9.90;;
48805;SDS011;34625;47.176;27.548;2024-01-15T08:16:34;18.30;;;10.38;;
48805;SDS011;34625;47.176;27.548;2024-01-15T08:19:00;15.88;;;10.13;;
48805;SDS011;34625;47.176;27.548;2024-01-15T08:21:26;16.95;;;9.18;;
48805;SDS011;34625;47.176;27.548;2024-01-15T08:23:58;14.27;;;9.05;;
48805;SDS011;34625;47.176;27.548;2024-01-15T08:26:25;16.40;;;9.45;;
48805;SDS011;34625;47.176;27.548;2024-01-15T08:28:51;18.65;;;10.93;;
48805;SDS011;34625;47.176;27.548;2024-01-15T08:31:17;17.02;;;10.93;;
48805;SDS011;34625;47.176;27.548;2024-01-15T08:33:43;18.90;;;10.57;;
48805;SDS011;34625;47.176;27.548;2024-01-15T08:36:09;17.05;;;10.23;;
48805;SDS011;34625;47.176;27.548;2024-01-15T08:38:35;17.75;;;11.40;;
48805;SDS011;34625;47.176;27.548;2024-01-15T08:41:02;13.63;;;9.82;;
48805;SDS011;34625;47.176;27.548;2024-01-15T08:43:28;16.20;;;11.20;;
48805;SDS011;34625;47.176;27.548;2024-01-15T08:45:55;20.85;;;11.30;;
48805;SDS011;34625;47.176;27.548;2024-01-15T08:48:21;18.25;;;11.38;;
48805;SDS011;34625;47.176;27.548;2024-01-15T08:50:47;17.25;;;9.70;;
48805;SDS011;34625;47.176;27.548;2024-01-15T08:53:13;15.90;;;10.02;;
48805;SDS011;34625;47.176;27.548;2024-01-15T08:55:40;17.58;;;9.57;;
48805;SDS011;34625;47.176;27.548;2024-01-15T08:58:07;18.00;;;9.43;;
48805;SDS011;34625;47.176;27.548;2024-01-15T09:00:34;15.18;;;9.35;;
48805;SDS011;34625;47.176;27.548;2024-01-15T09:03:00;16.35;;;10.65;;
48805;SDS011;34625;47.176;27.548;2024-01-15T09:05:26;14.35;;;9.25;;
48805;SDS011;34625;47.176;27.548;2024-01-15T09:07:52;14.85;;;8.45;;
48805;SDS011;34625;47.176;27.548;2024-01-15T09:10:18;17.45;;;10.15;;
48805;SDS011;34625;47.176;27.548;2024-01-15T09:12:45;11.82;;;7.88;;
48805;SDS011;34625;47.176;27.548;2024-01-15T09:15:11;14.95;;;8.80;;
48805;SDS011;34625;47.176;27.548;2024-01-15T09:17:38;14.77;;;9.43;;
48805;SDS011;34625;47.176;27.548;2024-01-15T09:20:04;16.75;;;9.90;;
48805;SDS011;34625;47.176;27.548;2024-01-15T09:22:31;13.98;;;9.05;;
48805;SDS011;34625;47.176;27.548;2024-01-15T09:24:57;15.23;;;8.65;;
48805;SDS011;34625;47.176;27.548;2024-01-15T09:27:24;15.07;;;9.27;;
48805;SDS011;34625;47.176;27.548;2024-01-15T09:29:53;14.27;;;8.82;;
48805;SDS011;34625;47.176;27.548;2024-01-15T09:32:19;17.38;;;9.75;;
48805;SDS011;34625;47.176;27.548;2024-01-15T09:34:45;16.90;;;8.90;;
48805;SDS011;34625;47.176;27.548;2024-01-15T09:37:12;16.25;;;10.20;;
48805;SDS011;34625;47.176;27.548;2024-01-15T09:39:40;18.45;;;9.50;;
48805;SDS011;34625;47.176;27.548;2024-01-15T09:42:06;13.88;;;7.97;;
48805;SDS011;34625;47.176;27.548;2024-01-15T09:44:33;20.90;;;8.93;;
48805;SDS011;34625;47.176;27.548;2024-01-15T09:47:00;6.28;;;2.75;;
48805;SDS011;34625;47.176;27.548;2024-01-15T09:49:27;6.40;;;2.33;;
48805;SDS011;34625;47.176;27.548;2024-01-15T09:51:55;7.10;;;3.08;;
48805;SDS011;34625;47.176;27.548;2024-01-15T09:54:22;7.25;;;3.60;;
48805;SDS011;34625;47.176;27.548;2024-01-15T09:56:49;5.47;;;3.65;;
48805;SDS011;34625;47.176;27.548;2024-01-15T09:59:16;6.88;;;3.15;;
48805;SDS011;34625;47.176;27.548;2024-01-15T10:01:43;16.23;;;8.32;;
48805;SDS011;34625;47.176;27.548;2024-01-15T10:04:11;16.58;;;8.68;;
48805;SDS011;34625;47.176;27.548;2024-01-15T10:06:44;12.20;;;8.50;;
48805;SDS011;34625;47.176;27.548;2024-01-15T10:09:14;14.10;;;8.73;;
48805;SDS011;34625;47.176;27.548;2024-01-15T10:11:41;17.30;;;9.77;;
48805;SDS011;34625;47.176;27.548;2024-01-15T10:14:08;15.10;;;9.45;;
48805;SDS011;34625;47.176;27.548;2024-01-15T10:16:38;10.68;;;7.43;;
48805;SDS011;34625;47.176;27.548;2024-01-15T10:19:07;14.63;;;8.75;;
48805;SDS011;34625;47.176;27.548;2024-01-15T10:21:34;18.30;;;10.32;;
48805;SDS011;34625;47.176;27.548;2024-01-15T10:24:01;16.67;;;9.73;;
48805;SDS011;34625;47.176;27.548;2024-01-15T10:26:28;15.88;;;8.52;;
48805;SDS011;34625;47.176;27.548;2024-01-15T10:28:55;15.93;;;9.02;;
48805;SDS011;34625;47.176;27.548;2024-01-15T10:31:21;16.40;;;9.07;;
48805;SDS011;34625;47.176;27.548;2024-01-15T10:33:50;17.63;;;9.95;;
48805;SDS011;34625;47.176;27.548;2024-01-15T10:36:17;17.08;;;9.93;;
48805;SDS011;34625;47.176;27.548;2024-01-15T10:38:43;17.00;;;9.93;;
48805;SDS011;34625;47.176;27.548;2024-01-15T10:41:10;16.85;;;10.02;;
48805;SDS011;34625;47.176;27.548;2024-01-15T10:43:36;15.13;;;9.40;;
48805;SDS011;34625;47.176;27.548;2024-01-15T10:46:02;14.90;;;9.68;;
48805;SDS011;34625;47.176;27.548;2024-01-15T10:48:29;16.08;;;10.18;;
48805;SDS011;34625;47.176;27.548;2024-01-15T10:50:56;3.42;;;2.40;;
48805;SDS011;34625;47.176;27.548;2024-01-15T10:53:23;8.60;;;2.80;;
48805;SDS011;34625;47.176;27.548;2024-01-15T10:55:54;19.67;;;5.90;;
48805;SDS011;34625;47.176;27.548;2024-01-15T10:58:21;16.92;;;5.18;;
48805;SDS011;34625;47.176;27.548;2024-01-15T11:00:48;4.93;;;3.58;;
48805;SDS011;34625;47.176;27.548;2024-01-15T11:03:15;17.13;;;10.15;;
48805;SDS011;34625;47.176;27.548;2024-01-15T11:05:43;15.38;;;9.18;;
48805;SDS011;34625;47.176;27.548;2024-01-15T11:08:10;14.98;;;9.00;;
48805;SDS011;34625;47.176;27.548;2024-01-15T11:10:40;13.90;;;8.32;;
48805;SDS011;34625;47.176;27.548;2024-01-15T11:13:40;15.68;;;9.00;;
48805;SDS011;34625;47.176;27.548;2024-01-15T11:16:02;12.88;;;8.75;;
48805;SDS011;34625;47.176;27.548;2024-01-15T11:18:30;12.80;;;8.27;;
48805;SDS011;34625;47.176;27.548;2024-01-15T11:21:21;14.10;;;8.30;;
48805;SDS011;34625;47.176;27.548;2024-01-15T11:23:49;14.25;;;8.13;;
48805;SDS011;34625;47.176;27.548;2024-01-15T11:28:54;12.43;;;8.77;;
48805;SDS011;34625;47.176;27.548;2024-01-15T11:31:28;17.23;;;8.90;;
48805;SDS011;34625;47.176;27.548;2024-01-15T11:33:55;12.13;;;8.45;;
48805;SDS011;34625;47.176;27.548;2024-01-15T11:44:23;12.18;;;7.68;;
48805;SDS011;34625;47.176;27.548;2024-01-15T11:49:31;1.95;;;1.65;;
48805;SDS011;34625;47.176;27.548;2024-01-15T11:52:21;6.13;;;2.33;;
48805;SDS011;34625;47.176;27.548;2024-01-15T11:54:49;5.00;;;2.78;;
48805;SDS011;34625;47.176;27.548;2024-01-15T11:57:45;9.40;;;7.15;;
48805;SDS011;34625;47.176;27.548;2024-01-15T12:00:19;9.38;;;6.15;;
48805;SDS011;34625;47.176;27.548;2024-01-15T12:02:48;12.23;;;7.85;;
48805;SDS011;34625;47.176;27.548;2024-01-15T12:05:15;10.95;;;6.40;;
48805;SDS011;34625;47.176;27.548;2024-01-15T12:07:43;12.48;;;7.07;;
48805;SDS011;34625;47.176;27.548;2024-01-15T12:10:14;8.73;;;6.65;;
48805;SDS011;34625;47.176;27.548;2024-01-15T12:13:00;10.02;;;6.82;;
48805;SDS011;34625;47.176;27.548;2024-01-15T12:15:32;12.90;;;7.65;;
48805;SDS011;34625;47.176;27.548;2024-01-15T12:17:59;10.40;;;7.60;;
48805;SDS011;34625;47.176;27.548;2024-01-15T12:20:28;8.25;;;6.05;;
48805;SDS011;34625;47.176;27.548;2024-01-15T12:22:55;9.27;;;6.93;;
48805;SDS011;34625;47.176;27.548;2024-01-15T12:25:21;10.50;;;5.72;;
48805;SDS011;34625;47.176;27.548;2024-01-15T12:27:49;8.43;;;6.03;;
48805;SDS011;34625;47.176;27.548;2024-01-15T12:30:15;8.27;;;6.15;;
48805;SDS011;34625;47.176;27.548;2024-01-15T12:32:42;9.52;;;6.63;;
48805;SDS011;34625;47.176;27.548;2024-01-15T12:35:09;11.77;;;7.35;;
48805;SDS011;34625;47.176;27.548;2024-01-15T12:37:37;10.55;;;6.72;;
48805;SDS011;34625;47.176;27.548;2024-01-15T12:40:05;10.55;;;7.07;;
48805;SDS011;34625;47.176;27.548;2024-01-15T12:42:42;9.77;;;7.90;;
48805;SDS011;34625;47.176;27.548;2024-01-15T12:45:12;9.90;;;7.18;;
48805;SDS011;34625;47.176;27.548;2024-01-15T12:47:39;10.02;;;6.57;;
48805;SDS011;34625;47.176;27.548;2024-01-15T12:50:09;10.27;;;7.30;;
48805;SDS011;34625;47.176;27.548;2024-01-15T12:52:37;9.65;;;6.55;;
48805;SDS011;34625;47.176;27.548;2024-01-15T12:55:06;13.48;;;7.50;;
48805;SDS011;34625;47.176;27.548;2024-01-15T12:57:36;8.85;;;6.18;;
48805;SDS011;34625;47.176;27.548;2024-01-15T13:00:03;9.15;;;6.10;;
48805;SDS011;34625;47.176;27.548;2024-01-15T13:02:33;10.82;;;6.55;;
48805;SDS011;34625;47.176;27.548;2024-01-15T13:04:59;10.93;;;6.25;;
48805;SDS011;34625;47.176;27.548;2024-01-15T13:07:26;6.53;;;4.10;;
48805;SDS011;34625;47.176;27.548;2024-01-15T13:09:52;9.50;;;6.75;;
48805;SDS011;34625;47.176;27.548;2024-01-15T13:12:19;8.70;;;6.18;;
48805;SDS011;34625;47.176;27.548;2024-01-15T13:14:46;11.45;;;6.07;;
48805;SDS011;34625;47.176;27.548;2024-01-15T13:17:13;11.82;;;7.32;;
48805;SDS011;34625;47.176;27.548;2024-01-15T13:19:42;7.55;;;4.63;;
48805;SDS011;34625;47.176;27.548;2024-01-15T13:22:08;9.60;;;6.82;;
48805;SDS011;34625;47.176;27.548;2024-01-15T13:24:35;11.85;;;7.10;;
48805;SDS011;34625;47.176;27.548;2024-01-15T13:27:04;13.02;;;7.10;;
48805;SDS011;34625;47.176;27.548;2024-01-15T13:29:31;11.75;;;6.88;;
48805;SDS011;34625;47.176;27.548;2024-01-15T13:31:57;11.70;;;7.10;;
48805;SDS011;34625;47.176;27.548;2024-01-15T13:34:24;3.17;;;2.88;;
48805;SDS011;34625;47.176;27.548;2024-01-15T13:36:50;7.95;;;5.53;;
48805;SDS011;34625;47.176;27.548;2024-01-15T13:39:16;3.92;;;2.50;;
48805;SDS011;34625;47.176;27.548;2024-01-15T13:41:46;1.65;;;1.52;;
48805;SDS011;34625;47.176;27.548;2024-01-15T13:44:12;7.13;;;4.45;;
48805;SDS011;34625;47.176;27.548;2024-01-15T13:46:38;2.05;;;1.92;;
48805;SDS011;34625;47.176;27.548;2024-01-15T13:49:04;6.80;;;3.22;;
48805;SDS011;34625;47.176;27.548;2024-01-15T13:51:31;11.63;;;6.72;;
48805;SDS011;34625;47.176;27.548;2024-01-15T13:53:57;10.85;;;5.40;;
48805;SDS011;34625;47.176;27.548;2024-01-15T13:56:24;7.80;;;4.35;;
48805;SDS011;34625;47.176;27.548;2024-01-15T13:58:50;9.88;;;6.30;;
48805;SDS011;34625;47.176;27.548;2024-01-15T14:01:17;8.43;;;4.68;;
48805;SDS011;34625;47.176;27.548;2024-01-15T14:03:43;14.02;;;4.20;;
48805;SDS011;34625;47.176;27.548;2024-01-15T14:06:09;9.18;;;4.93;;
48805;SDS011;34625;47.176;27.548;2024-01-15T14:08:36;12.45;;;6.03;;
48805;SDS011;34625;47.176;27.548;2024-01-15T14:11:03;6.60;;;3.85;;
48805;SDS011;34625;47.176;27.548;2024-01-15T14:13:32;7.85;;;5.00;;
48805;SDS011;34625;47.176;27.548;2024-01-15T14:15:58;10.98;;;6.47;;
48805;SDS011;34625;47.176;27.548;2024-01-15T14:18:26;10.70;;;6.28;;
48805;SDS011;34625;47.176;27.548;2024-01-15T14:20:52;9.65;;;6.22;;
48805;SDS011;34625;47.176;27.548;2024-01-15T14:23:21;8.98;;;5.65;;
48805;SDS011;34625;47.176;27.548;2024-01-15T14:25:47;8.68;;;6.18;;
48805;SDS011;34625;47.176;27.548;2024-01-15T14:28:13;7.72;;;5.32;;